Time,TemperatureF,DewpointF,PressureIn,WindDirection,WindDirectionDegrees,WindSpeedMPH,WindSpeedGustMPH,Humidity,HourlyPrecipIn,Conditions,Clouds,dailyrainin,SolarRadiationWatts/m^2,SoftwareType,DateUTC
2013-06-17 00:02:00,66.0,53.0,26.72,NW,315,1.0,2.0,62,0.00,,,0.00,0.000000,,2013-06-17 06:02:00,
2013-06-17 00:12:00,66.0,53.0,26.72,NW,315,1.0,2.0,62,0.00,,,0.00,0.000000,,2013-06-17 06:12:00,
2013-06-17 00:22:00,66.0,50.0,26.72,North,5,2.0,8.0,57,0.00,,,0.00,0.000000,,2013-06-17 06:22:00,
2013-06-17 00:33:00,66.0,50.0,26.73,NE,36,2.0,6.0,56,0.00,,,0.00,0.000000,,2013-06-17 06:33:00,
2013-06-17 00:43:00,66.0,50.0,26.73,NE,36,2.0,6.0,56,0.00,,,0.00,0.000000,,2013-06-17 06:43:00,
2013-06-17 00:53:00,65.0,49.0,26.73,NE,36,0.0,4.0,57,0.00,,,0.00,0.000000,,2013-06-17 06:53:00,
2013-06-17 01:02:00,66.0,49.0,26.74,NW,320,4.0,7.0,55,0.00,,,0.00,0.000000,,2013-06-17 07:02:00,
2013-06-17 01:12:00,66.0,49.0,26.74,NW,320,4.0,7.0,55,0.00,,,0.00,0.000000,,2013-06-17 07:12:00,
2013-06-17 01:22:00,66.0,50.0,26.75,NW,314,0.0,5.0,56,0.00,,,0.00,0.000000,,2013-06-17 07:22:00,
2013-06-17 01:33:00,66.0,50.0,26.75,NW,310,0.0,5.0,56,0.00,,,0.00,0.000000,,2013-06-17 07:33:00,
2013-06-17 01:43:00,66.0,50.0,26.75,NW,310,0.0,5.0,56,0.00,,,0.00,0.000000,,2013-06-17 07:43:00,
2013-06-17 01:53:00,66.0,49.0,26.73,NW,309,0.0,1.0,55,0.00,,,0.00,0.000000,,2013-06-17 07:53:00,
2013-06-17 02:01:00,65.0,49.0,26.73,NW,310,0.0,4.0,56,0.00,,,0.00,0.000000,,2013-06-17 08:01:00,
2013-06-17 02:11:00,65.0,49.0,26.73,NW,310,0.0,4.0,56,0.00,,,0.00,0.000000,,2013-06-17 08:11:00,
2013-06-17 02:22:00,65.0,48.0,26.75,NW,311,1.0,5.0,55,0.00,,,0.00,0.000000,,2013-06-17 08:22:00,
2013-06-17 02:33:00,65.0,48.0,26.74,NW,308,2.0,5.0,55,0.00,,,0.00,0.000000,,2013-06-17 08:33:00,
2013-06-17 02:43:00,65.0,48.0,26.74,NW,308,2.0,5.0,55,0.00,,,0.00,0.000000,,2013-06-17 08:43:00,
2013-06-17 02:53:00,65.0,49.0,26.74,NW,309,0.0,2.0,57,0.00,,,0.00,0.000000,,2013-06-17 08:53:00,
2013-06-17 03:02:00,64.0,49.0,26.74,NW,308,0.0,1.0,59,0.00,,,0.00,0.000000,,2013-06-17 09:02:00,
2013-06-17 03:11:00,64.0,49.0,26.74,NW,308,0.0,1.0,59,0.00,,,0.00,0.000000,,2013-06-17 09:11:00,
2013-06-17 03:22:00,64.0,49.0,26.74,NW,307,0.0,1.0,59,0.00,,,0.00,0.000000,,2013-06-17 09:22:00,
2013-06-17 03:34:00,64.0,49.0,26.75,NW,307,0.0,2.0,58,0.00,,,0.00,0.000000,,2013-06-17 09:34:00,
2013-06-17 03:43:00,64.0,49.0,26.75,NW,307,0.0,2.0,58,0.00,,,0.00,0.000000,,2013-06-17 09:43:00,
2013-06-17 03:53:00,63.0,48.0,26.75,NW,308,0.0,4.0,58,0.00,,,0.00,0.000000,,2013-06-17 09:53:00,
2013-06-17 04:02:00,64.0,49.0,26.75,West,280,0.0,4.0,58,0.00,,,0.00,0.000000,,2013-06-17 10:02:00,
2013-06-17 04:12:00,64.0,49.0,26.75,West,280,0.0,4.0,58,0.00,,,0.00,0.000000,,2013-06-17 10:12:00,
2013-06-17 04:22:00,64.0,49.0,26.74,West,281,0.0,0.0,59,0.00,,,0.00,0.000000,,2013-06-17 10:22:00,
2013-06-17 04:33:00,63.0,48.0,26.73,West,281,1.0,4.0,59,0.00,,,0.00,0.000000,,2013-06-17 10:33:00,
2013-06-17 04:43:00,63.0,48.0,26.73,West,281,1.0,4.0,59,0.00,,,0.00,0.000000,,2013-06-17 10:43:00,
2013-06-17 04:54:00,63.0,48.0,26.73,NW,314,0.0,6.0,59,0.00,,,0.00,0.000000,,2013-06-17 10:54:00,
2013-06-17 05:02:00,63.0,49.0,26.74,NW,314,0.0,0.0,61,0.00,,,0.00,0.000000,,2013-06-17 11:02:00,
2013-06-17 05:12:00,63.0,49.0,26.74,NW,314,0.0,0.0,61,0.00,,,0.00,0.000000,,2013-06-17 11:12:00,
2013-06-17 05:23:00,63.0,49.0,26.73,NW,315,0.0,0.0,61,0.00,,,0.00,0.000000,,2013-06-17 11:23:00,
2013-06-17 05:33:00,62.0,49.0,26.73,NW,314,0.0,1.0,62,0.00,,,0.00,7.000000,,2013-06-17 11:33:00,
2013-06-17 05:43:00,62.0,49.0,26.73,NW,314,0.0,1.0,62,0.00,,,0.00,7.000000,,2013-06-17 11:43:00,
2013-06-17 05:53:00,62.0,49.0,26.74,NW,315,0.0,1.0,62,0.00,,,0.00,11.000000,,2013-06-17 11:53:00,
2013-06-17 06:02:00,62.0,50.0,26.75,NW,317,0.0,5.0,64,0.00,,,0.00,12.000000,,2013-06-17 12:02:00,
2013-06-17 06:12:00,62.0,50.0,26.75,NW,317,0.0,5.0,64,0.00,,,0.00,12.000000,,2013-06-17 12:12:00,
2013-06-17 06:22:00,61.0,49.0,26.75,WNW,284,0.0,4.0,64,0.00,,,0.00,21.000000,,2013-06-17 12:22:00,
2013-06-17 06:33:00,61.0,49.0,26.75,West,280,1.0,5.0,64,0.00,,,0.00,44.000000,,2013-06-17 12:33:00,
2013-06-17 06:43:00,61.0,49.0,26.75,West,280,1.0,5.0,64,0.00,,,0.00,44.000000,,2013-06-17 12:43:00,
2013-06-17 06:53:00,61.0,49.0,26.75,West,280,0.0,2.0,65,0.00,,,0.00,62.000000,,2013-06-17 12:53:00,
2013-06-17 07:01:00,62.0,50.0,26.75,West,280,0.0,1.0,65,0.00,,,0.00,134.000000,,2013-06-17 13:01:00,
2013-06-17 07:12:00,62.0,50.0,26.75,West,280,0.0,1.0,65,0.00,,,0.00,134.000000,,2013-06-17 13:12:00,
2013-06-17 07:22:00,62.0,49.0,26.75,NNW,331,3.0,7.0,63,0.00,,,0.00,174.000000,,2013-06-17 13:22:00,
2013-06-17 07:32:00,63.0,50.0,26.75,West,273,0.0,4.0,62,0.00,,,0.00,178.000000,,2013-06-17 13:32:00,
2013-06-17 07:43:00,63.0,50.0,26.75,West,273,0.0,4.0,62,0.00,,,0.00,178.000000,,2013-06-17 13:43:00,
2013-06-17 07:53:00,65.0,50.0,26.75,North,355,1.0,5.0,58,0.00,,,0.00,253.000000,,2013-06-17 13:53:00,
2013-06-17 08:02:00,65.0,49.0,26.75,North,360,1.0,6.0,56,0.00,,,0.00,378.000000,,2013-06-17 14:02:00,
2013-06-17 08:12:00,65.0,49.0,26.75,North,360,1.0,6.0,56,0.00,,,0.00,378.000000,,2013-06-17 14:12:00,
2013-06-17 08:22:00,67.0,50.0,26.76,NE,48,0.0,7.0,54,0.00,,,0.00,424.000000,,2013-06-17 14:22:00,
2013-06-17 08:34:00,66.0,50.0,26.76,NE,36,0.0,6.0,56,0.00,,,0.00,466.000000,,2013-06-17 14:34:00,
2013-06-17 08:43:00,66.0,50.0,26.76,NE,36,0.0,6.0,56,0.00,,,0.00,466.000000,,2013-06-17 14:43:00,
2013-06-17 08:53:00,69.0,51.0,26.75,NE,53,0.0,4.0,52,0.00,,,0.00,517.000000,,2013-06-17 14:53:00,
2013-06-17 09:01:00,69.0,50.0,26.75,ESE,111,4.0,8.0,50,0.00,,,0.00,559.000000,,2013-06-17 15:01:00,
2013-06-17 09:12:00,69.0,50.0,26.75,ESE,111,4.0,8.0,50,0.00,,,0.00,559.000000,,2013-06-17 15:12:00,
2013-06-17 09:22:00,69.0,50.0,26.75,ESE,110,3.0,7.0,51,0.00,,,0.00,617.000000,,2013-06-17 15:22:00,
2013-06-17 09:33:00,68.0,49.0,26.75,ESE,113,5.0,11.0,51,0.00,,,0.00,682.000000,,2013-06-17 15:33:00,
2013-06-17 09:43:00,68.0,49.0,26.75,ESE,113,5.0,11.0,51,0.00,,,0.00,682.000000,,2013-06-17 15:43:00,
2013-06-17 09:52:00,69.0,49.0,26.75,ESE,103,5.0,9.0,49,0.00,,,0.00,726.000000,,2013-06-17 15:52:00,
2013-06-17 10:02:00,71.0,51.0,26.75,ESE,117,1.0,8.0,49,0.00,,,0.00,738.000000,,2013-06-17 16:02:00,
2013-06-17 10:11:00,71.0,51.0,26.75,ESE,117,1.0,8.0,49,0.00,,,0.00,738.000000,,2013-06-17 16:11:00,
2013-06-17 10:22:00,70.0,49.0,26.75,SE,144,2.0,10.0,48,0.00,,,0.00,765.000000,,2013-06-17 16:22:00,
2013-06-17 10:33:00,70.0,49.0,26.75,ESE,111,2.0,13.0,47,0.00,,,0.00,816.000000,,2013-06-17 16:33:00,
2013-06-17 10:43:00,70.0,49.0,26.75,ESE,111,2.0,13.0,47,0.00,,,0.00,816.000000,,2013-06-17 16:43:00,
2013-06-17 10:54:00,70.0,50.0,26.75,SE,124,6.0,14.0,50,0.00,,,0.00,886.000000,,2013-06-17 16:54:00,
2013-06-17 11:02:00,71.0,50.0,26.75,SE,142,6.0,10.0,47,0.00,,,0.00,935.000000,,2013-06-17 17:02:00,
2013-06-17 11:12:00,71.0,50.0,26.75,SE,142,6.0,10.0,47,0.00,,,0.00,935.000000,,2013-06-17 17:12:00,
2013-06-17 11:22:00,70.0,50.0,26.75,ESE,109,7.0,12.0,50,0.00,,,0.00,970.000000,,2013-06-17 17:22:00,
2013-06-17 11:33:00,70.0,50.0,26.75,ESE,105,4.0,10.0,49,0.00,,,0.00,132.000000,,2013-06-17 17:33:00,
2013-06-17 11:43:00,70.0,50.0,26.75,ESE,105,4.0,10.0,49,0.00,,,0.00,132.000000,,2013-06-17 17:43:00,
2013-06-17 11:52:00,70.0,51.0,26.76,ESE,111,3.0,7.0,51,0.00,,,0.00,204.000000,,2013-06-17 17:52:00,
2013-06-17 12:02:00,69.0,52.0,26.75,ESE,107,2.0,7.0,54,0.00,,,0.00,155.000000,,2013-06-17 18:02:00,
2013-06-17 12:12:00,69.0,52.0,26.75,ESE,107,2.0,7.0,54,0.00,,,0.00,155.000000,,2013-06-17 18:12:00,
2013-06-17 12:23:00,69.0,53.0,26.75,SSE,155,3.0,9.0,56,0.00,,,0.00,239.000000,,2013-06-17 18:23:00,
2013-06-17 12:33:00,68.0,52.0,26.75,South,188,5.0,11.0,57,0.00,,,0.00,149.000000,,2013-06-17 18:33:00,
2013-06-17 12:43:00,68.0,52.0,26.75,South,188,5.0,11.0,57,0.00,,,0.00,149.000000,,2013-06-17 18:43:00,
2013-06-17 12:53:00,69.0,52.0,26.74,SSE,148,4.0,8.0,54,0.00,,,0.00,134.000000,,2013-06-17 18:53:00,
2013-06-17 13:02:00,68.0,52.0,26.75,South,178,5.0,8.0,56,0.00,,,0.00,148.000000,,2013-06-17 19:02:00,
2013-06-17 13:11:00,68.0,52.0,26.75,South,178,5.0,8.0,56,0.00,,,0.00,148.000000,,2013-06-17 19:11:00,
2013-06-17 13:22:00,68.0,52.0,26.75,South,183,3.0,8.0,56,0.00,,,0.00,167.000000,,2013-06-17 19:22:00,
2013-06-17 13:33:00,68.0,54.0,26.74,SSW,205,5.0,9.0,61,0.01,,,0.01,976.000000,,2013-06-17 19:33:00,
2013-06-17 13:43:00,68.0,54.0,26.74,SSW,205,5.0,9.0,61,0.01,,,0.01,976.000000,,2013-06-17 19:43:00,
2013-06-17 13:54:00,70.0,53.0,26.74,SSW,197,7.0,13.0,54,0.01,,,0.01,1100.000000,,2013-06-17 19:54:00,
2013-06-17 14:02:00,70.0,52.0,26.73,East,100,4.0,8.0,53,0.01,,,0.01,264.000000,,2013-06-17 20:02:00,
2013-06-17 14:11:00,70.0,52.0,26.73,East,100,4.0,8.0,53,0.01,,,0.01,264.000000,,2013-06-17 20:11:00,
2013-06-17 14:22:00,70.0,52.0,26.73,ESE,121,3.0,8.0,52,0.01,,,0.01,128.000000,,2013-06-17 20:22:00,
2013-06-17 14:34:00,69.0,51.0,26.73,SE,134,8.0,11.0,52,0.00,,,0.01,84.000000,,2013-06-17 20:34:00,
2013-06-17 14:43:00,69.0,51.0,26.73,SE,134,8.0,11.0,52,0.00,,,0.01,84.000000,,2013-06-17 20:43:00,
2013-06-17 14:52:00,69.0,52.0,26.73,ESE,111,6.0,9.0,54,0.00,,,0.01,62.000000,,2013-06-17 20:52:00,
2013-06-17 15:01:00,69.0,54.0,26.75,West,270,2.0,11.0,59,0.00,,,0.01,25.000000,,2013-06-17 21:01:00,
2013-06-17 15:12:00,69.0,54.0,26.75,West,270,2.0,11.0,59,0.00,,,0.01,25.000000,,2013-06-17 21:12:00,
2013-06-17 15:22:00,62.0,52.0,26.73,SSW,211,6.0,13.0,69,0.26,,,0.27,90.000000,,2013-06-17 21:22:00,
2013-06-17 15:33:00,61.0,53.0,26.72,SE,134,0.0,9.0,75,0.28,,,0.29,35.000000,,2013-06-17 21:33:00,
2013-06-17 15:43:00,61.0,53.0,26.72,SE,134,0.0,9.0,75,0.28,,,0.29,35.000000,,2013-06-17 21:43:00,
2013-06-17 15:52:00,60.0,53.0,26.72,South,181,5.0,8.0,78,0.28,,,0.29,39.000000,,2013-06-17 21:52:00,
2013-06-17 16:01:00,61.0,55.0,26.74,West,263,7.0,12.0,80,0.28,,,0.29,125.000000,,2013-06-17 22:01:00,
2013-06-17 16:11:00,61.0,55.0,26.74,West,263,7.0,12.0,80,0.28,,,0.29,125.000000,,2013-06-17 22:11:00,
2013-06-17 16:22:00,62.0,56.0,26.72,West,259,0.0,6.0,80,0.02,,,0.29,803.000000,,2013-06-17 22:22:00,
2013-06-17 16:33:00,64.0,56.0,26.73,WSW,248,5.0,11.0,76,0.00,,,0.29,768.000000,,2013-06-17 22:33:00,
2013-06-17 16:43:00,64.0,56.0,26.73,WSW,248,5.0,11.0,76,0.00,,,0.29,768.000000,,2013-06-17 22:43:00,
2013-06-17 16:53:00,66.0,55.0,26.73,South,180,1.0,8.0,68,0.00,,,0.29,710.000000,,2013-06-17 22:53:00,
2013-06-17 17:02:00,67.0,53.0,26.72,SSW,198,3.0,6.0,61,0.00,,,0.29,257.000000,,2013-06-17 23:02:00,
2013-06-17 17:11:00,67.0,53.0,26.72,SSW,198,3.0,6.0,61,0.00,,,0.29,257.000000,,2013-06-17 23:11:00,
2013-06-17 17:22:00,68.0,54.0,26.72,SSW,200,3.0,6.0,62,0.00,,,0.29,615.000000,,2013-06-17 23:22:00,
2013-06-17 17:32:00,69.0,54.0,26.72,West,275,2.0,6.0,58,0.00,,,0.29,619.000000,,2013-06-17 23:32:00,
2013-06-17 17:42:00,69.0,54.0,26.72,West,275,2.0,6.0,58,0.00,,,0.29,619.000000,,2013-06-17 23:42:00,
2013-06-17 17:53:00,71.0,54.0,26.72,SW,222,1.0,8.0,54,0.00,,,0.29,596.000000,,2013-06-17 23:53:00,
2013-06-17 18:01:00,70.0,51.0,26.71,SSW,209,3.0,10.0,51,0.00,,,0.29,425.000000,,2013-06-18 00:01:00,
2013-06-17 18:12:00,70.0,51.0,26.71,SSW,209,3.0,10.0,51,0.00,,,0.29,425.000000,,2013-06-18 00:12:00,
2013-06-17 18:22:00,69.0,51.0,26.72,SSW,192,3.0,6.0,53,0.00,,,0.29,81.000000,,2013-06-18 00:22:00,
2013-06-17 18:33:00,69.0,54.0,26.72,SSW,193,0.0,2.0,58,0.00,,,0.29,88.000000,,2013-06-18 00:33:00,
2013-06-17 18:43:00,69.0,54.0,26.72,SSW,193,0.0,2.0,58,0.00,,,0.29,88.000000,,2013-06-18 00:43:00,
2013-06-17 18:52:00,68.0,54.0,26.71,SSW,193,1.0,3.0,61,0.00,,,0.29,111.000000,,2013-06-18 00:52:00,
2013-06-17 19:01:00,68.0,54.0,26.71,SSW,194,1.0,5.0,62,0.00,,,0.29,93.000000,,2013-06-18 01:01:00,
2013-06-17 19:11:00,68.0,54.0,26.71,SSW,194,1.0,5.0,62,0.00,,,0.29,93.000000,,2013-06-18 01:11:00,
2013-06-17 19:23:00,67.0,54.0,26.71,WNW,285,2.0,6.0,63,0.00,,,0.29,102.000000,,2013-06-18 01:23:00,
2013-06-17 19:34:00,69.0,55.0,26.71,WNW,286,2.0,7.0,62,0.00,,,0.29,255.000000,,2013-06-18 01:34:00,
2013-06-17 19:44:00,69.0,55.0,26.71,WNW,286,2.0,7.0,62,0.00,,,0.29,255.000000,,2013-06-18 01:44:00,
2013-06-17 19:53:00,68.0,54.0,26.70,West,275,2.0,8.0,62,0.00,,,0.29,128.000000,,2013-06-18 01:53:00,
2013-06-17 20:02:00,68.0,54.0,26.71,West,259,5.0,9.0,62,0.00,,,0.29,88.000000,,2013-06-18 02:02:00,
2013-06-17 20:11:00,68.0,54.0,26.71,West,259,5.0,9.0,62,0.00,,,0.29,88.000000,,2013-06-18 02:11:00,
2013-06-17 20:22:00,67.0,54.0,26.71,West,259,3.0,10.0,63,0.00,,,0.29,47.000000,,2013-06-18 02:22:00,
2013-06-17 20:34:00,66.0,53.0,26.71,WSW,258,0.0,2.0,64,0.00,,,0.29,21.000000,,2013-06-18 02:34:00,
2013-06-17 20:43:00,66.0,53.0,26.71,WSW,258,0.0,2.0,64,0.00,,,0.29,21.000000,,2013-06-18 02:43:00,
2013-06-17 20:53:00,65.0,53.0,26.71,WSW,257,0.0,0.0,65,0.00,,,0.29,12.000000,,2013-06-18 02:53:00,
2013-06-17 21:02:00,65.0,53.0,26.72,WSW,257,0.0,0.0,66,0.00,,,0.29,0.000000,,2013-06-18 03:02:00,
2013-06-17 21:12:00,65.0,53.0,26.72,WSW,257,0.0,0.0,66,0.00,,,0.29,0.000000,,2013-06-18 03:12:00,
2013-06-17 21:23:00,64.0,53.0,26.72,WSW,240,2.0,7.0,67,0.00,,,0.29,0.000000,,2013-06-18 03:23:00,
2013-06-17 21:34:00,64.0,52.0,26.72,WNW,294,5.0,10.0,66,0.00,,,0.29,0.000000,,2013-06-18 03:34:00,
2013-06-17 21:43:00,64.0,52.0,26.72,WNW,294,5.0,10.0,66,0.00,,,0.29,0.000000,,2013-06-18 03:43:00,
2013-06-17 21:53:00,64.0,52.0,26.72,West,269,0.0,6.0,66,0.00,,,0.29,0.000000,,2013-06-18 03:53:00,
2013-06-17 22:01:00,63.0,52.0,26.72,West,269,0.0,1.0,68,0.00,,,0.29,0.000000,,2013-06-18 04:01:00,
2013-06-17 22:12:00,63.0,52.0,26.72,West,269,0.0,1.0,68,0.00,,,0.29,0.000000,,2013-06-18 04:12:00,
2013-06-17 22:22:00,63.0,52.0,26.72,West,269,0.0,0.0,68,0.00,,,0.29,0.000000,,2013-06-18 04:22:00,
2013-06-17 22:34:00,63.0,52.0,26.72,West,269,0.0,0.0,68,0.00,,,0.29,0.000000,,2013-06-18 04:34:00,
2013-06-17 22:43:00,63.0,52.0,26.72,West,269,0.0,0.0,68,0.00,,,0.29,0.000000,,2013-06-18 04:43:00,
2013-06-17 22:54:00,61.0,52.0,26.72,West,269,0.0,1.0,71,0.00,,,0.29,0.000000,,2013-06-18 04:54:00,
2013-06-17 23:02:00,61.0,52.0,26.71,West,269,0.0,0.0,72,0.00,,,0.29,0.000000,,2013-06-18 05:02:00,
2013-06-17 23:12:00,61.0,52.0,26.71,West,269,0.0,0.0,72,0.00,,,0.29,0.000000,,2013-06-18 05:12:00,
2013-06-17 23:22:00,61.0,52.0,26.72,West,269,0.0,1.0,72,0.00,,,0.29,0.000000,,2013-06-18 05:22:00,
2013-06-17 23:33:00,61.0,53.0,26.72,West,268,0.0,0.0,74,0.00,,,0.29,0.000000,,2013-06-18 05:33:00,
2013-06-17 23:43:00,61.0,53.0,26.72,West,268,0.0,0.0,74,0.00,,,0.29,0.000000,,2013-06-18 05:43:00,
2013-06-17 23:53:00,60.0,51.0,26.71,West,269,0.0,0.0,73,0.00,,,0.29,0.000000,,2013-06-18 05:53:00,